sensor_id;sensor_type;location;lat;lon;timestamp;P1;durP1;ratioP1;P2;durP2;ratioP2
71320;SDS011;59118;54.322;18.576;2023-04-01T00:02:03;16.80;;;5.43;;
71320;SDS011;59118;54.322;18.576;2023-04-01T00:04:29;15.35;;;5.63;;
71320;SDS011;59118;54.322;18.576;2023-04-01T00:06:56;18.33;;;5.40;;
71320;SDS011;59118;54.322;18.576;2023-04-01T00:09:23;19.20;;;5.53;;
71320;SDS011;59118;54.322;18.576;2023-04-01T00:11:49;16.55;;;5.72;;
71320;SDS011;59118;54.322;18.576;2023-04-01T00:14:16;13.00;;;5.57;;
71320;SDS011;59118;54.322;18.576;2023-04-01T00:16:42;12.73;;;5.25;;
71320;SDS011;59118;54.322;18.576;2023-04-01T00:19:09;18.92;;;5.32;;
71320;SDS011;59118;54.322;18.576;2023-04-01T00:21:36;17.48;;;5.28;;
71320;SDS011;59118;54.322;18.576;2023-04-01T00:24:03;12.55;;;4.85;;
71320;SDS011;59118;54.322;18.576;2023-04-01T00:26:29;13.57;;;5.47;;
71320;SDS011;59118;54.322;18.576;2023-04-01T00:28:56;11.70;;;4.63;;
71320;SDS011;59118;54.322;18.576;2023-04-01T00:31:23;10.80;;;4.50;;
71320;SDS011;59118;54.322;18.576;2023-04-01T00:33:50;9.45;;;4.05;;
71320;SDS011;59118;54.322;18.576;2023-04-01T00:36:19;13.55;;;4.15;;
71320;SDS011;59118;54.322;18.576;2023-04-01T00:38:47;17.67;;;3.90;;
71320;SDS011;59118;54.322;18.576;2023-04-01T00:41:15;17.33;;;4.70;;
71320;SDS011;59118;54.322;18.576;2023-04-01T00:43:44;15.95;;;4.35;;
71320;SDS011;59118;54.322;18.576;2023-04-01T00:46:12;11.50;;;4.55;;
71320;SDS011;59118;54.322;18.576;2023-04-01T00:48:42;22.83;;;5.22;;
71320;SDS011;59118;54.322;18.576;2023-04-01T00:51:16;22.47;;;4.90;;
71320;SDS011;59118;54.322;18.576;2023-04-01T00:53:47;29.70;;;5.35;;
71320;SDS011;59118;54.322;18.576;2023-04-01T00:56:17;26.73;;;4.80;;
71320;SDS011;59118;54.322;18.576;2023-04-01T00:59:04;23.05;;;4.70;;
71320;SDS011;59118;54.322;18.576;2023-04-01T01:01:35;15.85;;;5.60;;
71320;SDS011;59118;54.322;18.576;2023-04-01T01:04:26;23.23;;;5.70;;
71320;SDS011;59118;54.322;18.576;2023-04-01T01:23:07;13.88;;;6.90;;
71320;SDS011;59118;54.322;18.576;2023-04-01T01:25:54;20.25;;;7.28;;
71320;SDS011;59118;54.322;18.576;2023-04-01T01:31:03;14.93;;;7.03;;
71320;SDS011;59118;54.322;18.576;2023-04-01T01:36:30;15.15;;;7.45;;
71320;SDS011;59118;54.322;18.576;2023-04-01T01:39:02;16.63;;;7.72;;
71320;SDS011;59118;54.322;18.576;2023-04-01T01:41:29;16.73;;;7.88;;
71320;SDS011;59118;54.322;18.576;2023-04-01T01:43:57;16.40;;;7.73;;
71320;SDS011;59118;54.322;18.576;2023-04-01T01:46:26;16.00;;;7.75;;
71320;SDS011;59118;54.322;18.576;2023-04-01T01:48:54;17.92;;;8.98;;
71320;SDS011;59118;54.322;18.576;2023-04-01T01:51:21;17.08;;;8.77;;
71320;SDS011;59118;54.322;18.576;2023-04-01T01:53:48;18.20;;;8.95;;
71320;SDS011;59118;54.322;18.576;2023-04-01T01:56:15;17.67;;;8.30;;
71320;SDS011;59118;54.322;18.576;2023-04-01T01:58:45;18.60;;;8.98;;
71320;SDS011;59118;54.322;18.576;2023-04-01T02:01:24;15.48;;;8.70;;
71320;SDS011;59118;54.322;18.576;2023-04-01T02:03:52;17.27;;;8.80;;
71320;SDS011;59118;54.322;18.576;2023-04-01T02:06:21;15.15;;;7.95;;
71320;SDS011;59118;54.322;18.576;2023-04-01T02:08:53;15.47;;;7.37;;
71320;SDS011;59118;54.322;18.576;2023-04-01T02:11:24;15.07;;;7.70;;
71320;SDS011;59118;54.322;18.576;2023-04-01T02:13:54;13.90;;;7.50;;
71320;SDS011;59118;54.322;18.576;2023-04-01T02:16:38;13.07;;;7.22;;
71320;SDS011;59118;54.322;18.576;2023-04-01T02:19:09;13.50;;;7.22;;
71320;SDS011;59118;54.322;18.576;2023-04-01T02:21:36;13.93;;;7.73;;
71320;SDS011;59118;54.322;18.576;2023-04-01T02:24:05;11.63;;;6.60;;
71320;SDS011;59118;54.322;18.576;2023-04-01T02:26:34;11.32;;;6.22;;
71320;SDS011;59118;54.322;18.576;2023-04-01T02:29:01;12.32;;;5.95;;
71320;SDS011;59118;54.322;18.576;2023-04-01T02:31:30;11.98;;;6.00;;
71320;SDS011;59118;54.322;18.576;2023-04-01T02:33:57;12.03;;;6.47;;
71320;SDS011;59118;54.322;18.576;2023-04-01T02:36:23;11.18;;;5.70;;
71320;SDS011;59118;54.322;18.576;2023-04-01T02:38:50;9.20;;;4.78;;
71320;SDS011;59118;54.322;18.576;2023-04-01T02:41:17;8.48;;;4.57;;
71320;SDS011;59118;54.322;18.576;2023-04-01T02:43:44;9.63;;;4.95;;
71320;SDS011;59118;54.322;18.576;2023-04-01T02:46:10;9.83;;;5.73;;
71320;SDS011;59118;54.322;18.576;2023-04-01T02:48:37;9.60;;;5.63;;
71320;SDS011;59118;54.322;18.576;2023-04-01T02:51:03;11.32;;;5.97;;
71320;SDS011;59118;54.322;18.576;2023-04-01T02:53:30;10.63;;;5.55;;
71320;SDS011;59118;54.322;18.576;2023-04-01T02:55:57;8.77;;;4.97;;
71320;SDS011;59118;54.322;18.576;2023-04-01T02:58:23;7.87;;;4.67;;
71320;SDS011;59118;54.322;18.576;2023-04-01T03:00:50;8.20;;;4.47;;
71320;SDS011;59118;54.322;18.576;2023-04-01T03:03:17;7.80;;;4.30;;
71320;SDS011;59118;54.322;18.576;2023-04-01T03:05:43;7.90;;;3.88;;
71320;SDS011;59118;54.322;18.576;2023-04-01T03:08:10;7.80;;;4.00;;
71320;SDS011;59118;54.322;18.576;2023-04-01T03:10:37;9.00;;;4.87;;
71320;SDS011;59118;54.322;18.576;2023-04-01T03:13:04;8.15;;;4.10;;
71320;SDS011;59118;54.322;18.576;2023-04-01T03:15:30;9.15;;;4.45;;
71320;SDS011;59118;54.322;18.576;2023-04-01T03:17:57;8.43;;;4.00;;
71320;SDS011;59118;54.322;18.576;2023-04-01T03:20:24;7.18;;;3.60;;
71320;SDS011;59118;54.322;18.576;2023-04-01T03:22:50;7.87;;;4.50;;
71320;SDS011;59118;54.322;18.576;2023-04-01T03:25:17;9.10;;;4.13;;
71320;SDS011;59118;54.322;18.576;2023-04-01T03:27:44;8.82;;;4.30;;
71320;SDS011;59118;54.322;18.576;2023-04-01T03:30:10;7.88;;;4.10;;
71320;SDS011;59118;54.322;18.576;2023-04-01T03:32:37;8.32;;;4.05;;
71320;SDS011;59118;54.322;18.576;2023-04-01T03:35:04;7.87;;;4.40;;
71320;SDS011;59118;54.322;18.576;2023-04-01T03:37:31;7.63;;;3.97;;
71320;SDS011;59118;54.322;18.576;2023-04-01T03:39:58;7.93;;;4.38;;
71320;SDS011;59118;54.322;18.576;2023-04-01T03:42:24;8.68;;;4.47;;
71320;SDS011;59118;54.322;18.576;2023-04-01T03:44:51;9.55;;;4.25;;
71320;SDS011;59118;54.322;18.576;2023-04-01T03:47:18;8.27;;;4.07;;
71320;SDS011;59118;54.322;18.576;2023-04-01T03:49:44;7.40;;;3.85;;
71320;SDS011;59118;54.322;18.576;2023-04-01T03:52:11;7.80;;;4.03;;
71320;SDS011;59118;54.322;18.576;2023-04-01T03:54:38;7.57;;;4.13;;
71320;SDS011;59118;54.322;18.576;2023-04-01T03:57:04;6.53;;;3.95;;
71320;SDS011;59118;54.322;18.576;2023-04-01T03:59:31;8.63;;;4.10;;
71320;SDS011;59118;54.322;18.576;2023-04-01T04:01:58;9.90;;;4.30;;
71320;SDS011;59118;54.322;18.576;2023-04-01T04:04:24;7.60;;;4.30;;
71320;SDS011;59118;54.322;18.576;2023-04-01T04:06:52;7.38;;;4.10;;
71320;SDS011;59118;54.322;18.576;2023-04-01T04:09:18;9.52;;;4.30;;
71320;SDS011;59118;54.322;18.576;2023-04-01T04:11:45;7.30;;;4.10;;
71320;SDS011;59118;54.322;18.576;2023-04-01T04:14:11;8.38;;;4.13;;
71320;SDS011;59118;54.322;18.576;2023-04-01T04:16:38;12.40;;;4.93;;
71320;SDS011;59118;54.322;18.576;2023-04-01T04:19:04;8.32;;;4.65;;
71320;SDS011;59118;54.322;18.576;2023-04-01T04:21:31;9.70;;;5.30;;
71320;SDS011;59118;54.322;18.576;2023-04-01T04:24:01;9.53;;;4.87;;
71320;SDS011;59118;54.322;18.576;2023-04-01T04:26:28;9.68;;;5.53;;
71320;SDS011;59118;54.322;18.576;2023-04-01T04:28:55;12.75;;;6.32;;
71320;SDS011;59118;54.322;18.576;2023-04-01T04:31:22;11.98;;;6.32;;
71320;SDS011;59118;54.322;18.576;2023-04-01T04:33:50;13.13;;;6.38;;
71320;SDS011;59118;54.322;18.576;2023-04-01T04:36:17;12.13;;;6.27;;
71320;SDS011;59118;54.322;18.576;2023-04-01T04:38:45;12.35;;;6.57;;
71320;SDS011;59118;54.322;18.576;2023-04-01T04:41:15;11.48;;;6.70;;
71320;SDS011;59118;54.322;18.576;2023-04-01T04:43:48;11.10;;;6.25;;
71320;SDS011;59118;54.322;18.576;2023-04-01T04:46:17;12.18;;;6.05;;
71320;SDS011;59118;54.322;18.576;2023-04-01T04:48:45;10.97;;;4.80;;
71320;SDS011;59118;54.322;18.576;2023-04-01T04:51:13;10.30;;;5.07;;
71320;SDS011;59118;54.322;18.576;2023-04-01T04:53:43;12.93;;;5.30;;
71320;SDS011;59118;54.322;18.576;2023-04-01T04:56:09;10.48;;;4.90;;
71320;SDS011;59118;54.322;18.576;2023-04-01T04:58:37;9.35;;;5.10;;
71320;SDS011;59118;54.322;18.576;2023-04-01T05:01:14;10.13;;;4.20;;
71320;SDS011;59118;54.322;18.576;2023-04-01T05:03:41;11.90;;;5.28;;
71320;SDS011;59118;54.322;18.576;2023-04-01T05:06:09;11.80;;;4.60;;
71320;SDS011;59118;54.322;18.576;2023-04-01T05:08:36;12.95;;;5.35;;
71320;SDS011;59118;54.322;18.576;2023-04-01T05:11:06;12.38;;;4.07;;
71320;SDS011;59118;54.322;18.576;2023-04-01T05:13:43;11.50;;;4.60;;
71320;SDS011;59118;54.322;18.576;2023-04-01T05:16:11;13.70;;;4.32;;
71320;SDS011;59118;54.322;18.576;2023-04-01T05:18:42;16.67;;;5.22;;
71320;SDS011;59118;54.322;18.576;2023-04-01T05:21:10;16.45;;;4.88;;
71320;SDS011;59118;54.322;18.576;2023-04-01T05:23:37;25.77;;;5.43;;
71320;SDS011;59118;54.322;18.576;2023-04-01T05:26:05;16.37;;;4.20;;
71320;SDS011;59118;54.322;18.576;2023-04-01T05:28:32;18.67;;;4.35;;
71320;SDS011;59118;54.322;18.576;2023-04-01T05:30:59;50.72;;;5.55;;
71320;SDS011;59118;54.322;18.576;2023-04-01T05:33:27;26.33;;;4.57;;
71320;SDS011;59118;54.322;18.576;2023-04-01T05:35:54;16.88;;;4.30;;
71320;SDS011;59118;54.322;18.576;2023-04-01T05:38:21;43.13;;;4.80;;
71320;SDS011;59118;54.322;18.576;2023-04-01T05:40:47;25.23;;;4.30;;
71320;SDS011;59118;54.322;18.576;2023-04-01T05:43:14;13.43;;;4.35;;
71320;SDS011;59118;54.322;18.576;2023-04-01T05:45:40;13.60;;;3.65;;
71320;SDS011;59118;54.322;18.576;2023-04-01T05:48:09;23.75;;;5.53;;
71320;SDS011;59118;54.322;18.576;2023-04-01T05:50:36;36.80;;;5.70;;
71320;SDS011;59118;54.322;18.576;2023-04-01T05:53:02;21.27;;;5.18;;
71320;SDS011;59118;54.322;18.576;2023-04-01T05:55:29;28.42;;;4.90;;
71320;SDS011;59118;54.322;18.576;2023-04-01T05:57:56;43.22;;;5.13;;
71320;SDS011;59118;54.322;18.576;2023-04-01T06:00:22;38.20;;;4.65;;
71320;SDS011;59118;54.322;18.576;2023-04-01T06:02:49;24.77;;;5.30;;
71320;SDS011;59118;54.322;18.576;2023-04-01T06:05:20;22.08;;;3.38;;
71320;SDS011;59118;54.322;18.576;2023-04-01T06:07:49;24.90;;;3.80;;
71320;SDS011;59118;54.322;18.576;2023-04-01T06:10:18;23.35;;;3.53;;
71320;SDS011;59118;54.322;18.576;2023-04-01T06:26:37;12.68;;;3.17;;
71320;SDS011;59118;54.322;18.576;2023-04-01T06:32:21;9.45;;;3.40;;
71320;SDS011;59118;54.322;18.576;2023-04-01T06:35:04;11.43;;;3.20;;
71320;SDS011;59118;54.322;18.576;2023-04-01T06:43:16;13.13;;;2.80;;
71320;SDS011;59118;54.322;18.576;2023-04-01T06:46:07;8.93;;;2.45;;
71320;SDS011;59118;54.322;18.576;2023-04-01T06:54:18;5.85;;;2.20;;
71320;SDS011;59118;54.322;18.576;2023-04-01T06:56:48;6.83;;;2.17;;
71320;SDS011;59118;54.322;18.576;2023-04-01T06:59:20;5.78;;;1.70;;
71320;SDS011;59118;54.322;18.576;2023-04-01T07:01:52;4.85;;;1.70;;
71320;SDS011;59118;54.322;18.576;2023-04-01T07:04:31;8.95;;;2.55;;
71320;SDS011;59118;54.322;18.576;2023-04-01T07:09:35;7.03;;;1.40;;
71320;SDS011;59118;54.322;18.576;2023-04-01T07:12:15;5.20;;;1.55;;
71320;SDS011;59118;54.322;18.576;2023-04-01T07:14:55;5.70;;;1.52;;
71320;SDS011;59118;54.322;18.576;2023-04-01T07:17:25;4.82;;;1.50;;
71320;SDS011;59118;54.322;18.576;2023-04-01T07:22:40;6.23;;;1.80;;
71320;SDS011;59118;54.322;18.576;2023-04-01T07:25:47;6.70;;;1.92;;
71320;SDS011;59118;54.322;18.576;2023-04-01T07:28:21;5.70;;;1.92;;
71320;SDS011;59118;54.322;18.576;2023-04-01T07:33:50;5.38;;;1.50;;
71320;SDS011;59118;54.322;18.576;2023-04-01T07:36:31;3.73;;;1.20;;
71320;SDS011;59118;54.322;18.576;2023-04-01T07:41:51;6.15;;;1.90;;
71320;SDS011;59118;54.322;18.576;2023-04-01T07:44:28;2.67;;;1.30;;
71320;SDS011;59118;54.322;18.576;2023-04-01T08:03:38;3.47;;;1.47;;
71320;SDS011;59118;54.322;18.576;2023-04-01T08:21:51;4.95;;;2.08;;
71320;SDS011;59118;54.322;18.576;2023-04-01T08:27:16;8.73;;;2.55;;
71320;SDS011;59118;54.322;18.576;2023-04-01T08:29:48;16.60;;;6.20;;
71320;SDS011;59118;54.322;18.576;2023-04-01T08:32:18;5.77;;;2.00;;
71320;SDS011;59118;54.322;18.576;2023-04-01T08:34:51;5.05;;;1.60;;
71320;SDS011;59118;54.322;18.576;2023-04-01T08:37:28;7.90;;;1.77;;
71320;SDS011;59118;54.322;18.576;2023-04-01T08:40:02;4.70;;;1.70;;
71320;SDS011;59118;54.322;18.576;2023-04-01T08:45:36;5.53;;;1.67;;
71320;SDS011;59118;54.322;18.576;2023-04-01T08:51:17;8.23;;;2.50;;
71320;SDS011;59118;54.322;18.576;2023-04-01T08:53:59;7.97;;;2.38;;
71320;SDS011;59118;54.322;18.576;2023-04-01T09:27:26;2.90;;;1.20;;
71320;SDS011;59118;54.322;18.576;2023-04-01T09:36:45;5.43;;;1.75;;
71320;SDS011;59118;54.322;18.576;2023-04-01T09:44:38;4.38;;;1.17;;
71320;SDS011;59118;54.322;18.576;2023-04-01T10:01:22;4.85;;;1.15;;
71320;SDS011;59118;54.322;18.576;2023-04-01T10:15:03;2.25;;;1.00;;
71320;SDS011;59118;54.322;18.576;2023-04-01T10:20:39;3.13;;;0.90;;
71320;SDS011;59118;54.322;18.576;2023-04-01T10:23:24;5.00;;;1.67;;
71320;SDS011;59118;54.322;18.576;2023-04-01T10:26:03;4.85;;;1.42;;
71320;SDS011;59118;54.322;18.576;2023-04-01T10:46:21;4.30;;;1.48;;
71320;SDS011;59118;54.322;18.576;2023-04-01T10:49:28;4.13;;;1.17;;
71320;SDS011;59118;54.322;18.576;2023-04-01T10:54:43;3.33;;;1.15;;
71320;SDS011;59118;54.322;18.576;2023-04-01T11:03:18;4.60;;;1.23;;
71320;SDS011;59118;54.322;18.576;2023-04-01T11:05:54;3.73;;;1.13;;
71320;SDS011;59118;54.322;18.576;2023-04-01T11:39:20;7.05;;;1.60;;
71320;SDS011;59118;54.322;18.576;2023-04-01T11:47:48;4.53;;;1.43;;
71320;SDS011;59118;54.322;18.576;2023-04-01T11:53:15;4.32;;;1.40;;
71320;SDS011;59118;54.322;18.576;2023-04-01T11:58:31;5.75;;;1.67;;
71320;SDS011;59118;54.322;18.576;2023-04-01T12:01:22;5.90;;;1.77;;
71320;SDS011;59118;54.322;18.576;2023-04-01T12:12:46;3.88;;;1.30;;
71320;SDS011;59118;54.322;18.576;2023-04-01T12:21:43;4.85;;;1.35;;
71320;SDS011;59118;54.322;18.576;2023-04-01T12:49:05;4.00;;;1.30;;
71320;SDS011;59118;54.322;18.576;2023-04-01T12:57:19;3.60;;;1.30;;
71320;SDS011;59118;54.322;18.576;2023-04-01T13:03:16;4.43;;;1.48;;
71320;SDS011;59118;54.322;18.576;2023-04-01T13:09:10;2.67;;;1.20;;
71320;SDS011;59118;54.322;18.576;2023-04-01T13:19:57;6.15;;;1.45;;
71320;SDS011;59118;54.322;18.576;2023-04-01T13:28:12;3.08;;;1.10;;
71320;SDS011;59118;54.322;18.576;2023-04-01T13:41:24;5.32;;;1.77;;
71320;SDS011;59118;54.322;18.576;2023-04-01T13:44:39;3.17;;;1.10;;
71320;SDS011;59118;54.322;18.576;2023-04-01T13:47:23;3.42;;;1.08;;
71320;SDS011;59118;54.322;18.576;2023-04-01T13:53:04;2.80;;;1.30;;
71320;SDS011;59118;54.322;18.576;2023-04-01T14:01:15;8.00;;;1.73;;
71320;SDS011;59118;54.322;18.576;2023-04-01T14:03:54;3.78;;;1.60;;
71320;SDS011;59118;54.322;18.576;2023-04-01T14:14:30;5.10;;;1.77;;
71320;SDS011;59118;54.322;18.576;2023-04-01T14:19:56;2.93;;;1.20;;
71320;SDS011;59118;54.322;18.576;2023-04-01T14:39:30;5.78;;;2.10;;
71320;SDS011;59118;54.322;18.576;2023-04-01T14:44:57;11.52;;;2.50;;
71320;SDS011;59118;54.322;18.576;2023-04-01T14:50:13;6.57;;;2.38;;
71320;SDS011;59118;54.322;18.576;2023-04-01T14:58:41;5.90;;;2.65;;
71320;SDS011;59118;54.322;18.576;2023-04-01T15:04:01;5.43;;;2.53;;
71320;SDS011;59118;54.322;18.576;2023-04-01T15:10:06;7.85;;;2.55;;
71320;SDS011;59118;54.322;18.576;2023-04-01T15:21:18;9.38;;;3.22;;
71320;SDS011;59118;54.322;18.576;2023-04-01T15:26:29;8.10;;;3.50;;
71320;SDS011;59118;54.322;18.576;2023-04-01T15:31:52;10.30;;;3.25;;
71320;SDS011;59118;54.322;18.576;2023-04-01T15:34:26;9.40;;;3.30;;
71320;SDS011;59118;54.322;18.576;2023-04-01T15:45:54;11.52;;;3.55;;
71320;SDS011;59118;54.322;18.576;2023-04-01T15:57:22;10.50;;;4.03;;
71320;SDS011;59118;54.322;18.576;2023-04-01T16:02:38;9.93;;;4.55;;
71320;SDS011;59118;54.322;18.576;2023-04-01T16:05:26;11.50;;;3.50;;
71320;SDS011;59118;54.322;18.576;2023-04-01T16:08:08;10.85;;;4.15;;
71320;SDS011;59118;54.322;18.576;2023-04-01T16:19:26;11.20;;;4.40;;
71320;SDS011;59118;54.322;18.576;2023-04-01T16:26:06;10.03;;;4.47;;
71320;SDS011;59118;54.322;18.576;2023-04-01T16:34:14;9.30;;;4.40;;
71320;SDS011;59118;54.322;18.576;2023-04-01T16:47:45;11.00;;;4.28;;
71320;SDS011;59118;54.322;18.576;2023-04-01T16:50:22;11.38;;;4.30;;
71320;SDS011;59118;54.322;18.576;2023-04-01T16:53:08;10.43;;;3.80;;
71320;SDS011;59118;54.322;18.576;2023-04-01T16:58:18;12.50;;;4.22;;
71320;SDS011;59118;54.322;18.576;2023-04-01T17:01:01;7.53;;;3.58;;
71320;SDS011;59118;54.322;18.576;2023-04-01T17:03:32;9.75;;;3.65;;
71320;SDS011;59118;54.322;18.576;2023-04-01T17:06:12;10.17;;;3.73;;
71320;SDS011;59118;54.322;18.576;2023-04-01T17:09:02;18.73;;;5.70;;
71320;SDS011;59118;54.322;18.576;2023-04-01T17:14:03;9.23;;;3.25;;
71320;SDS011;59118;54.322;18.576;2023-04-01T17:35:33;10.15;;;3.97;;
71320;SDS011;59118;54.322;18.576;2023-04-01T17:41:06;9.07;;;4.15;;
71320;SDS011;59118;54.322;18.576;2023-04-01T17:46:35;10.60;;;3.77;;
71320;SDS011;59118;54.322;18.576;2023-04-01T17:49:20;11.80;;;4.00;;
71320;SDS011;59118;54.322;18.576;2023-04-01T18:13:32;9.67;;;3.33;;
71320;SDS011;59118;54.322;18.576;2023-04-01T18:26:39;10.90;;;3.63;;
71320;SDS011;59118;54.322;18.576;2023-04-01T18:29:53;13.05;;;4.30;;
71320;SDS011;59118;54.322;18.576;2023-04-01T18:32:27;7.97;;;3.80;;
71320;SDS011;59118;54.322;18.576;2023-04-01T18:37:59;14.25;;;3.50;;
71320;SDS011;59118;54.322;18.576;2023-04-01T18:40:32;8.47;;;3.30;;
71320;SDS011;59118;54.322;18.576;2023-04-01T18:43:04;13.27;;;4.05;;
71320;SDS011;59118;54.322;18.576;2023-04-01T18:45:37;12.85;;;3.70;;
71320;SDS011;59118;54.322;18.576;2023-04-01T18:51:20;10.80;;;4.30;;
71320;SDS011;59118;54.322;18.576;2023-04-01T18:53:49;7.73;;;3.77;;
71320;SDS011;59118;54.322;18.576;2023-04-01T18:56:25;7.75;;;3.00;;
71320;SDS011;59118;54.322;18.576;2023-04-01T18:59:11;8.65;;;3.42;;
71320;SDS011;59118;54.322;18.576;2023-04-01T19:05:01;10.68;;;4.00;;
71320;SDS011;59118;54.322;18.576;2023-04-01T19:12:46;9.75;;;3.40;;
71320;SDS011;59118;54.322;18.576;2023-04-01T19:27:14;7.32;;;2.78;;
71320;SDS011;59118;54.322;18.576;2023-04-01T19:33:02;9.82;;;3.38;;
71320;SDS011;59118;54.322;18.576;2023-04-01T19:35:53;13.13;;;3.03;;
71320;SDS011;59118;54.322;18.576;2023-04-01T19:38:39;6.72;;;2.70;;
71320;SDS011;59118;54.322;18.576;2023-04-01T19:41:26;6.55;;;2.42;;
71320;SDS011;59118;54.322;18.576;2023-04-01T19:44:04;7.18;;;2.45;;
71320;SDS011;59118;54.322;18.576;2023-04-01T19:52:48;7.88;;;2.78;;
71320;SDS011;59118;54.322;18.576;2023-04-01T19:55:07;7.78;;;2.95;;
71320;SDS011;59118;54.322;18.576;2023-04-01T20:00:47;6.85;;;2.47;;
71320;SDS011;59118;54.322;18.576;2023-04-01T20:03:25;7.23;;;2.60;;
71320;SDS011;59118;54.322;18.576;2023-04-01T20:14:28;6.68;;;2.65;;
71320;SDS011;59118;54.322;18.576;2023-04-01T20:17:01;7.87;;;2.57;;
71320;SDS011;59118;54.322;18.576;2023-04-01T20:19:45;7.35;;;2.80;;
71320;SDS011;59118;54.322;18.576;2023-04-01T20:25:53;5.85;;;2.30;;
71320;SDS011;59118;54.322;18.576;2023-04-01T20:28:19;5.10;;;2.20;;
71320;SDS011;59118;54.322;18.576;2023-04-01T20:33:42;4.63;;;2.20;;
71320;SDS011;59118;54.322;18.576;2023-04-01T20:50:11;8.38;;;2.60;;
71320;SDS011;59118;54.322;18.576;2023-04-01T20:53:04;9.70;;;2.50;;
71320;SDS011;59118;54.322;18.576;2023-04-01T20:55:51;7.35;;;2.42;;
71320;SDS011;59118;54.322;18.576;2023-04-01T21:01:25;7.07;;;2.60;;
71320;SDS011;59118;54.322;18.576;2023-04-01T21:04:16;9.25;;;2.58;;
71320;SDS011;59118;54.322;18.576;2023-04-01T21:15:07;6.32;;;2.65;;
71320;SDS011;59118;54.322;18.576;2023-04-01T21:18:10;9.02;;;3.20;;
71320;SDS011;59118;54.322;18.576;2023-04-01T21:26:22;10.17;;;3.10;;
71320;SDS011;59118;54.322;18.576;2023-04-01T21:34:49;7.82;;;2.88;;
71320;SDS011;59118;54.322;18.576;2023-04-01T21:43:17;11.80;;;3.50;;
71320;SDS011;59118;54.322;18.576;2023-04-01T22:02:41;7.25;;;2.33;;
71320;SDS011;59118;54.322;18.576;2023-04-01T22:10:59;5.78;;;2.20;;
71320;SDS011;59118;54.322;18.576;2023-04-01T22:14:01;5.68;;;2.20;;
71320;SDS011;59118;54.322;18.576;2023-04-01T22:16:36;5.97;;;1.88;;
71320;SDS011;59118;54.322;18.576;2023-04-01T22:22:11;6.07;;;2.10;;
71320;SDS011;59118;54.322;18.576;2023-04-01T22:27:24;6.43;;;2.30;;
71320;SDS011;59118;54.322;18.576;2023-04-01T22:32:44;8.50;;;2.67;;
71320;SDS011;59118;54.322;18.576;2023-04-01T22:45:59;6.10;;;2.25;;
71320;SDS011;59118;54.322;18.576;2023-04-01T22:48:39;7.80;;;2.77;;
71320;SDS011;59118;54.322;18.576;2023-04-01T22:51:15;5.82;;;2.20;;
71320;SDS011;59118;54.322;18.576;2023-04-01T22:53:59;6.13;;;2.10;;
71320;SDS011;59118;54.322;18.576;2023-04-01T22:59:08;5.85;;;2.20;;
71320;SDS011;59118;54.322;18.576;2023-04-01T23:01:41;5.37;;;2.30;;
71320;SDS011;59118;54.322;18.576;2023-04-01T23:04:13;6.00;;;1.92;;
71320;SDS011;59118;54.322;18.576;2023-04-01T23:06:44;12.18;;;2.70;;
71320;SDS011;59118;54.322;18.576;2023-04-01T23:09:15;6.72;;;2.03;;
71320;SDS011;59118;54.322;18.576;2023-04-01T23:11:57;7.68;;;2.47;;
71320;SDS011;59118;54.322;18.576;2023-04-01T23:14:32;6.83;;;2.43;;
71320;SDS011;59118;54.322;18.576;2023-04-01T23:17:12;5.78;;;2.13;;
71320;SDS011;59118;54.322;18.576;2023-04-01T23:28:17;6.07;;;2.20;;
71320;SDS011;59118;54.322;18.576;2023-04-01T23:33:13;11.50;;;3.08;;
71320;SDS011;59118;54.322;18.576;2023-04-01T23:38:21;10.18;;;2.50;;
71320;SDS011;59118;54.322;18.576;2023-04-01T23:40:51;6.23;;;1.70;;
71320;SDS011;59118;54.322;18.576;2023-04-01T23:43:40;6.32;;;1.40;;
71320;SDS011;59118;54.322;18.576;2023-04-01T23:46:06;4.07;;;1.30;;
71320;SDS011;59118;54.322;18.576;2023-04-01T23:48:37;5.68;;;1.20;;
71320;SDS011;59118;54.322;18.576;2023-04-01T23:51:13;15.13;;;1.90;;
71320;SDS011;59118;54.322;18.576;2023-04-01T23:53:45;3.70;;;1.00;;
71320;SDS011;59118;54.322;18.576;2023-04-01T23:56:12;3.88;;;1.30;;
71320;SDS011;59118;54.322;18.576;2023-04-01T23:58:44;2.28;;;0.93;;
